Time;durP1;ratioP1;P1;durP2;ratioP2;P2;SDS_P1;SDS_P2;PMS_P1;PMS_P2;Temp;Humidity;BMP_temperature;BMP_pressure;BME280_temperature;BME280_humidity;BME280_pressure;Samples;Min_cycle;Max_cycle;Signal;HPM_P1;HPM_P2
2023/10/17 00:01:12;;;;;;;8.63;4.03;;;;;;;;;;4998512;28;20059;-39
2023/10/17 00:03:40;;;;;;;12.77;4.43;;;;;;;;;;5004721;28;20509;-38
2023/10/17 00:06:08;;;;;;;12.00;4.37;;;;;;;;;;5006939;28;20495;-39
2023/10/17 00:08:40;;;;;;;12.80;4.40;;;;;;;;;;5015393;28;20136;-39
2023/10/17 00:11:14;;;;;;;11.35;4.22;;;;;;;;;;5003382;28;20049;-38
2023/10/17 00:13:52;;;;;;;12.48;4.30;;;;;;;;;;5005533;28;20207;-39
2023/10/17 00:16:21;;;;;;;10.05;4.43;;;;;;;;;;4999279;28;20044;-38
2023/10/17 00:18:49;;;;;;;11.87;4.33;;;;;;;;;;5011045;28;20054;-38
2023/10/17 00:21:22;;;;;;;9.73;4.38;;;;;;;;;;5005654;28;20514;-38
2023/10/17 00:23:51;;;;;;;11.43;4.15;;;;;;;;;;4988902;28;20041;-38
2023/10/17 00:26:22;;;;;;;12.82;4.85;;;;;;;;;;5006105;28;20234;-38
2023/10/17 00:28:51;;;;;;;15.77;4.40;;;;;;;;;;4995794;28;20123;-39
2023/10/17 00:31:21;;;;;;;12.47;4.77;;;;;;;;;;5004601;28;20038;-39
2023/10/17 00:33:50;;;;;;;11.05;4.80;;;;;;;;;;5003671;28;20025;-38
2023/10/17 00:36:23;;;;;;;11.30;4.68;;;;;;;;;;5009263;28;20118;-38
2023/10/17 00:38:51;;;;;;;15.85;5.72;;;;;;;;;;5000104;28;20476;-39
2023/10/17 00:41:29;;;;;;;11.75;5.07;;;;;;;;;;5009050;28;20073;-38
2023/10/17 00:43:59;;;;;;;10.20;4.53;;;;;;;;;;5015137;28;20033;-39
2023/10/17 00:46:26;;;;;;;10.48;4.13;;;;;;;;;;4993231;28;20049;-39
2023/10/17 00:49:04;;;;;;;11.13;4.35;;;;;;;;;;5014218;28;20045;-39
2023/10/17 00:51:32;;;;;;;12.65;4.90;;;;;;;;;;4998551;28;20045;-38
2023/10/17 00:54:01;;;;;;;8.90;4.32;;;;;;;;;;5010741;28;20046;-38
2023/10/17 00:56:28;;;;;;;12.37;5.03;;;;;;;;;;4994114;28;20044;-39
2023/10/17 00:59:00;;;;;;;10.75;4.57;;;;;;;;;;5010906;28;20049;-38
2023/10/17 01:01:27;;;;;;;10.82;4.03;;;;;;;;;;4998306;28;20479;-39
2023/10/17 01:03:58;;;;;;;12.18;4.80;;;;;;;;;;5009556;28;20072;-38
2023/10/17 01:06:36;;;;;;;12.27;4.20;;;;;;;;;;5000728;28;20056;-38
2023/10/17 01:09:16;;;;;;;9.37;4.53;;;;;;;;;;5001258;28;20040;-38
2023/10/17 01:11:45;;;;;;;13.65;4.82;;;;;;;;;;5004349;28;20037;-38
2023/10/17 01:14:18;;;;;;;13.27;5.18;;;;;;;;;;5001698;28;20099;-38
2023/10/17 01:16:46;;;;;;;11.48;5.15;;;;;;;;;;5002899;28;20508;-38
2023/10/17 01:19:19;;;;;;;11.85;4.57;;;;;;;;;;5010314;28;20053;-38
2023/10/17 01:21:56;;;;;;;9.47;4.60;;;;;;;;;;5008832;28;20048;-39
2023/10/17 01:24:26;;;;;;;13.48;4.47;;;;;;;;;;5006190;28;20041;-38
2023/10/17 01:26:54;;;;;;;12.93;4.90;;;;;;;;;;5003038;28;20762;-39
2023/10/17 01:29:23;;;;;;;10.13;4.80;;;;;;;;;;4995706;28;20072;-38
2023/10/17 01:31:51;;;;;;;12.68;5.32;;;;;;;;;;4996531;28;20044;-38
2023/10/17 01:34:19;;;;;;;10.50;4.37;;;;;;;;;;5009994;28;20488;-38
2023/10/17 01:36:47;;;;;;;14.48;5.28;;;;;;;;;;4999196;28;20092;-38
2023/10/17 01:39:15;;;;;;;13.27;5.25;;;;;;;;;;4986261;28;20041;-38
2023/10/17 01:41:48;;;;;;;11.85;4.72;;;;;;;;;;5015150;28;20069;-38
2023/10/17 01:44:16;;;;;;;11.52;5.07;;;;;;;;;;4976740;28;20052;-38
2023/10/17 01:46:43;;;;;;;11.73;4.90;;;;;;;;;;5011723;28;20049;-38
2023/10/17 01:49:12;;;;;;;11.95;5.20;;;;;;;;;;5000521;28;20037;-38
2023/10/17 01:51:42;;;;;;;12.63;5.43;;;;;;;;;;5013659;28;20068;-38
2023/10/17 01:54:11;;;;;;;14.23;6.07;;;;;;;;;;4999670;28;20049;-39
2023/10/17 01:56:40;;;;;;;10.73;4.80;;;;;;;;;;5016693;28;20037;-38
2023/10/17 01:59:13;;;;;;;12.87;5.10;;;;;;;;;;5003886;28;20038;-39
2023/10/17 02:01:41;;;;;;;12.20;5.45;;;;;;;;;;5010225;28;20377;-38
2023/10/17 02:04:13;;;;;;;13.90;5.00;;;;;;;;;;5005210;28;20049;-38
2023/10/17 02:06:42;;;;;;;12.40;4.75;;;;;;;;;;4997267;28;20042;-38
2023/10/17 02:09:23;;;;;;;13.85;6.03;;;;;;;;;;5000222;28;20618;-38
2023/10/17 02:11:50;;;;;;;11.40;5.23;;;;;;;;;;5011363;28;20041;-38
2023/10/17 02:14:20;;;;;;;14.43;5.53;;;;;;;;;;5013171;28;20132;-38
2023/10/17 02:16:48;;;;;;;12.40;5.28;;;;;;;;;;5013913;28;20620;-38
2023/10/17 02:19:17;;;;;;;12.35;5.32;;;;;;;;;;4998087;28;20054;-38
2023/10/17 02:21:49;;;;;;;14.65;5.75;;;;;;;;;;5002605;28;20072;-38
2023/10/17 02:24:21;;;;;;;13.10;6.03;;;;;;;;;;4995992;28;20049;-38
2023/10/17 02:26:56;;;;;;;12.93;5.60;;;;;;;;;;5007147;28;20037;-38
2023/10/17 02:29:26;;;;;;;13.30;5.72;;;;;;;;;;5006117;28;20601;-38
2023/10/17 02:31:55;;;;;;;11.60;5.72;;;;;;;;;;4992585;28;20099;-38
2023/10/17 02:34:23;;;;;;;14.20;5.40;;;;;;;;;;5009509;28;20041;-38
2023/10/17 02:36:52;;;;;;;12.50;5.57;;;;;;;;;;4991952;28;20041;-47
2023/10/17 02:39:20;;;;;;;12.98;5.72;;;;;;;;;;5015272;28;20073;-38
2023/10/17 02:41:58;;;;;;;11.10;5.47;;;;;;;;;;4998119;28;20047;-39
2023/10/17 02:44:31;;;;;;;13.43;5.40;;;;;;;;;;5013919;28;20123;-39
2023/10/17 02:46:59;;;;;;;11.10;5.00;;;;;;;;;;5000336;28;20037;-38
2023/10/17 02:49:36;;;;;;;10.50;5.20;;;;;;;;;;5008853;28;20041;-38
2023/10/17 02:52:05;;;;;;;12.85;5.13;;;;;;;;;;4982638;28;20048;-39
2023/10/17 02:54:52;;;;;;;11.68;5.10;;;;;;;;;;5012146;28;20045;-38
2023/10/17 02:57:20;;;;;;;10.20;5.25;;;;;;;;;;5006193;28;20336;-38
2023/10/17 02:59:51;;;;;;;11.80;4.90;;;;;;;;;;5006831;28;20726;-38
2023/10/17 03:02:20;;;;;;;13.33;4.43;;;;;;;;;;5013985;28;20350;-38
2023/10/17 03:04:47;;;;;;;11.55;4.32;;;;;;;;;;4973608;28;20149;-38
2023/10/17 03:07:15;;;;;;;11.02;4.93;;;;;;;;;;4999594;28;20809;-39
2023/10/17 03:09:44;;;;;;;13.00;4.70;;;;;;;;;;5007800;28;20431;-39
2023/10/17 03:12:19;;;;;;;10.23;5.00;;;;;;;;;;5004030;28;20055;-38
2023/10/17 03:17:34;;;;;;;11.82;4.65;;;;;;;;;;5012899;28;20042;-39
2023/10/17 03:20:01;;;;;;;10.82;4.20;;;;;;;;;;4997429;28;20073;-38
2023/10/17 03:22:28;;;;;;;14.90;4.38;;;;;;;;;;5015075;28;20038;-38
2023/10/17 03:25:02;;;;;;;9.27;3.95;;;;;;;;;;5007585;28;20492;-38
2023/10/17 03:27:36;;;;;;;13.87;4.77;;;;;;;;;;5000971;28;20137;-38
2023/10/17 03:30:11;;;;;;;17.90;6.25;;;;;;;;;;5014706;28;20037;-38
2023/10/17 03:32:52;;;;;;;10.68;4.45;;;;;;;;;;5016092;28;20098;-38
2023/10/17 03:35:21;;;;;;;10.02;3.90;;;;;;;;;;5000543;28;20855;-45
2023/10/17 03:37:49;;;;;;;10.35;4.25;;;;;;;;;;5011942;28;20496;-42
2023/10/17 03:40:29;;;;;;;10.73;3.50;;;;;;;;;;5004650;28;20451;-37
2023/10/17 03:43:04;;;;;;;10.52;3.40;;;;;;;;;;5014845;28;20120;-38
2023/10/17 03:45:43;;;;;;;10.60;3.85;;;;;;;;;;5007874;28;20053;-38
2023/10/17 03:48:19;;;;;;;11.70;3.72;;;;;;;;;;4998346;28;20053;-38
2023/10/17 03:50:58;;;;;;;8.80;3.25;;;;;;;;;;5007257;28;20463;-38
2023/10/17 03:53:29;;;;;;;10.40;3.50;;;;;;;;;;5012749;28;20041;-38
2023/10/17 03:56:00;;;;;;;10.88;3.83;;;;;;;;;;5005809;28;20032;-38
2023/10/17 03:58:43;;;;;;;9.15;4.25;;;;;;;;;;5017411;28;20033;-38
2023/10/17 04:01:12;;;;;;;8.93;3.50;;;;;;;;;;5016455;28;20037;-37
2023/10/17 04:03:42;;;;;;;11.98;3.50;;;;;;;;;;5003093;28;20579;-38
2023/10/17 04:06:18;;;;;;;11.53;3.23;;;;;;;;;;5011830;28;20063;-38
2023/10/17 04:08:50;;;;;;;9.98;3.38;;;;;;;;;;5007995;28;20048;-38
2023/10/17 04:11:25;;;;;;;9.10;3.25;;;;;;;;;;5009952;28;20045;-38
2023/10/17 04:13:54;;;;;;;10.70;3.38;;;;;;;;;;5005337;28;20154;-42
2023/10/17 04:16:26;;;;;;;8.77;3.30;;;;;;;;;;5005718;28;20041;-38
2023/10/17 04:18:57;;;;;;;9.73;2.80;;;;;;;;;;5016631;28;20053;-38
2023/10/17 04:21:31;;;;;;;9.93;2.58;;;;;;;;;;5005545;28;20041;-38
2023/10/17 04:24:01;;;;;;;10.00;3.15;;;;;;;;;;5000904;28;20041;-38
2023/10/17 04:26:34;;;;;;;8.23;2.78;;;;;;;;;;5003439;28;20053;-38
2023/10/17 04:29:12;;;;;;;9.93;2.88;;;;;;;;;;5002436;28;20128;-38
2023/10/17 04:31:43;;;;;;;7.83;2.57;;;;;;;;;;5012793;28;20037;-38
2023/10/17 04:34:18;;;;;;;7.07;2.50;;;;;;;;;;5020367;28;20042;-38
2023/10/17 04:36:46;;;;;;;12.35;3.08;;;;;;;;;;4995163;28;20487;-38
2023/10/17 04:39:19;;;;;;;8.27;2.67;;;;;;;;;;5010996;28;20041;-38
2023/10/17 04:42:06;;;;;;;11.90;3.20;;;;;;;;;;5000086;28;20049;-38
2023/10/17 04:44:38;;;;;;;7.93;2.90;;;;;;;;;;5013024;28;20512;-38
2023/10/17 04:49:54;;;;;;;7.35;2.38;;;;;;;;;;4987124;28;20064;-38
2023/10/17 04:52:23;;;;;;;7.88;2.53;;;;;;;;;;5010065;28;20057;-38
2023/10/17 04:54:53;;;;;;;7.22;2.50;;;;;;;;;;4988156;28;20094;-38
2023/10/17 04:57:21;;;;;;;7.57;2.53;;;;;;;;;;5004424;28;20049;-39
2023/10/17 05:00:09;;;;;;;11.38;2.58;;;;;;;;;;4993498;28;20076;-38
2023/10/17 05:02:47;;;;;;;10.32;2.65;;;;;;;;;;5009388;28;20042;-38
2023/10/17 05:08:17;;;;;;;9.57;2.65;;;;;;;;;;4999763;28;20033;-37
2023/10/17 06:17:23;;;;;;;8.65;2.88;;;;;;;;;;5018483;28;20305;-38
2023/10/17 06:19:51;;;;;;;10.27;3.10;;;;;;;;;;4992581;28;20675;-38
2023/10/17 06:30:49;;;;;;;10.23;3.00;;;;;;;;;;4989235;28;20059;-38
2023/10/17 06:33:19;;;;;;;8.17;3.10;;;;;;;;;;5001017;28;20124;-40
2023/10/17 06:35:52;;;;;;;10.77;2.92;;;;;;;;;;5003786;28;20045;-38
2023/10/17 06:38:19;;;;;;;10.65;3.05;;;;;;;;;;5001107;28;20443;-38
2023/10/17 06:40:52;;;;;;;9.95;2.97;;;;;;;;;;5000905;28;20064;-38
2023/10/17 06:43:32;;;;;;;9.15;3.67;;;;;;;;;;4993964;28;20472;-38
2023/10/17 06:46:05;;;;;;;13.40;2.87;;;;;;;;;;4995777;28;20041;-39
2023/10/17 06:48:32;;;;;;;11.95;3.50;;;;;;;;;;5005939;28;20119;-38
2023/10/17 06:53:48;;;;;;;9.90;3.45;;;;;;;;;;4963700;28;20045;-39
2023/10/17 06:56:17;;;;;;;11.25;3.53;;;;;;;;;;5009119;28;20554;-38
2023/10/17 06:58:47;;;;;;;8.50;3.37;;;;;;;;;;5006052;28;20056;-38
2023/10/17 07:01:24;;;;;;;10.13;3.10;;;;;;;;;;4996896;28;20049;-38
2023/10/17 07:03:55;;;;;;;10.45;2.97;;;;;;;;;;5002486;28;20659;-39
2023/10/17 07:06:25;;;;;;;9.88;3.30;;;;;;;;;;5010981;28;20040;-38
2023/10/17 07:08:53;;;;;;;16.25;4.15;;;;;;;;;;4998245;28;20506;-38
2023/10/17 07:11:29;;;;;;;11.20;3.37;;;;;;;;;;5007123;28;20499;-38
2023/10/17 07:14:11;;;;;;;7.90;3.30;;;;;;;;;;5008472;28;20034;-38
2023/10/17 07:16:49;;;;;;;10.77;2.65;;;;;;;;;;5003157;28;20396;-38
2023/10/17 07:22:06;;;;;;;13.65;3.30;;;;;;;;;;4989281;28;20041;-38
2023/10/17 07:24:36;;;;;;;9.93;3.47;;;;;;;;;;5003675;28;20048;-38
2023/10/17 07:27:11;;;;;;;8.32;2.75;;;;;;;;;;5001773;28;20576;-38
2023/10/17 07:29:58;;;;;;;10.55;3.15;;;;;;;;;;4993683;28;20041;-38
2023/10/17 07:32:32;;;;;;;16.08;3.20;;;;;;;;;;4995974;28;20052;-38
2023/10/17 07:35:05;;;;;;;9.35;2.75;;;;;;;;;;4986578;28;20046;-38
2023/10/17 07:37:48;;;;;;;10.35;3.30;;;;;;;;;;4672491;28;10001093;-38
2023/10/17 07:40:22;;;;;;;11.38;3.45;;;;;;;;;;4991910;28;20266;-38
2023/10/17 07:42:52;;;;;;;9.50;2.80;;;;;;;;;;4994241;28;20049;-39
2023/10/17 07:45:22;;;;;;;10.85;3.10;;;;;;;;;;5000813;28;20705;-39
2023/10/17 07:47:54;;;;;;;12.88;3.42;;;;;;;;;;4989048;28;20688;-38
2023/10/17 07:50:25;;;;;;;10.63;3.15;;;;;;;;;;5001230;28;20037;-38
2023/10/17 07:53:02;;;;;;;12.45;3.00;;;;;;;;;;5007626;28;24540;-39
2023/10/17 07:55:37;;;;;;;10.47;2.87;;;;;;;;;;4983080;28;20467;-38
2023/10/17 07:58:09;;;;;;;8.52;3.00;;;;;;;;;;4999707;28;20045;-38
2023/10/17 08:00:41;;;;;;;8.85;3.33;;;;;;;;;;4663460;28;10000023;-39
2023/10/17 08:03:09;;;;;;;10.00;3.10;;;;;;;;;;4970093;28;20115;-38
2023/10/17 08:05:44;;;;;;;10.98;3.25;;;;;;;;;;4990986;28;20040;-38
2023/10/17 08:08:14;;;;;;;9.33;3.50;;;;;;;;;;4982419;28;20044;-39
2023/10/17 08:10:45;;;;;;;13.68;3.67;;;;;;;;;;4998595;28;20080;-39
2023/10/17 08:13:19;;;;;;;10.52;3.63;;;;;;;;;;4989472;28;20536;-38
2023/10/17 08:15:52;;;;;;;11.35;3.80;;;;;;;;;;4996897;28;20140;-39
2023/10/17 08:18:27;;;;;;;17.35;2.70;;;;;;;;;;4998918;28;20718;-39
2023/10/17 08:20:58;;;;;;;10.50;3.30;;;;;;;;;;4984399;28;20632;-39
2023/10/17 08:23:26;;;;;;;13.05;3.55;;;;;;;;;;4992362;28;20049;-38
2023/10/17 08:25:59;;;;;;;10.38;3.33;;;;;;;;;;5002027;28;20036;-39
2023/10/17 08:28:37;;;;;;;10.20;3.42;;;;;;;;;;4993299;28;20041;-39
2023/10/17 08:31:18;;;;;;;9.55;4.00;;;;;;;;;;5000494;28;20033;-38
2023/10/17 08:33:52;;;;;;;10.77;3.30;;;;;;;;;;4988575;28;20424;-39
2023/10/17 08:36:23;;;;;;;12.63;3.20;;;;;;;;;;4995987;28;20339;-45
2023/10/17 08:38:54;;;;;;;11.73;3.10;;;;;;;;;;4995234;28;20045;-38
2023/10/17 08:41:23;;;;;;;10.80;4.05;;;;;;;;;;4993009;28;20526;-39
2023/10/17 08:43:51;;;;;;;9.63;2.78;;;;;;;;;;4972319;28;20041;-39
2023/10/17 08:46:20;;;;;;;10.63;3.90;;;;;;;;;;4986926;28;20045;-39
2023/10/17 08:48:48;;;;;;;11.38;3.45;;;;;;;;;;4996076;28;20534;-38
2023/10/17 08:51:19;;;;;;;9.50;3.60;;;;;;;;;;4993803;28;20077;-39
2023/10/17 08:53:56;;;;;;;9.80;2.78;;;;;;;;;;4989162;28;20045;-38
2023/10/17 08:56:36;;;;;;;9.55;3.13;;;;;;;;;;4971459;28;20053;-38
2023/10/17 08:59:11;;;;;;;9.37;3.13;;;;;;;;;;4992037;28;20456;-38
2023/10/17 09:02:00;;;;;;;9.70;2.97;;;;;;;;;;4978206;28;20084;-39
2023/10/17 09:04:32;;;;;;;9.02;3.28;;;;;;;;;;4978986;28;20045;-39
2023/10/17 09:07:04;;;;;;;13.55;3.80;;;;;;;;;;4991312;28;20037;-38
2023/10/17 09:09:34;;;;;;;15.50;3.60;;;;;;;;;;4979434;28;20073;-38
2023/10/17 09:12:01;;;;;;;12.97;3.87;;;;;;;;;;4985929;28;20041;-38
2023/10/17 09:14:35;;;;;;;8.20;3.08;;;;;;;;;;4990689;28;20068;-38
2023/10/17 09:17:16;;;;;;;10.07;3.20;;;;;;;;;;4991496;28;20102;-39
2023/10/17 09:19:51;;;;;;;7.15;3.05;;;;;;;;;;4985272;28;21605;-38
2023/10/17 09:22:36;;;;;;;8.77;3.22;;;;;;;;;;4970044;28;20041;-38
2023/10/17 09:25:21;;;;;;;10.73;3.30;;;;;;;;;;4981127;28;20102;-39
2023/10/17 09:27:50;;;;;;;14.02;3.28;;;;;;;;;;5006703;28;20053;-39
2023/10/17 09:30:23;;;;;;;11.20;2.95;;;;;;;;;;4989718;28;20080;-39
2023/10/17 09:32:53;;;;;;;9.90;3.30;;;;;;;;;;4975264;28;20038;-39
2023/10/17 09:35:22;;;;;;;11.60;2.78;;;;;;;;;;4992603;28;20123;-38
2023/10/17 09:37:51;;;;;;;6.43;2.07;;;;;;;;;;4987349;28;20045;-38
2023/10/17 09:40:25;;;;;;;8.07;2.75;;;;;;;;;;4991907;28;20517;-38
2023/10/17 09:42:53;;;;;;;8.57;2.40;;;;;;;;;;4975361;28;20044;-39
2023/10/17 09:45:21;;;;;;;13.07;2.60;;;;;;;;;;4985476;28;20033;-38
2023/10/17 09:48:05;;;;;;;11.63;2.55;;;;;;;;;;4993657;28;20267;-40
2023/10/17 09:50:37;;;;;;;7.73;1.93;;;;;;;;;;4993124;28;20037;-38
2023/10/17 09:53:14;;;;;;;9.85;2.75;;;;;;;;;;4965171;28;20670;-40
2023/10/17 09:55:46;;;;;;;7.38;1.77;;;;;;;;;;4937432;28;20126;-38
2023/10/17 09:58:17;;;;;;;8.93;2.25;;;;;;;;;;4970459;28;21414;-38
2023/10/17 10:00:48;;;;;;;9.07;2.10;;;;;;;;;;4296225;28;10000453;-38
2023/10/17 10:03:18;;;;;;;8.88;2.38;;;;;;;;;;4976133;28;20049;-37
2023/10/17 10:05:47;;;;;;;8.02;1.88;;;;;;;;;;4981829;28;20048;-38
2023/10/17 10:08:28;;;;;;;10.95;1.98;;;;;;;;;;4989342;28;20056;-38
2023/10/17 10:10:56;;;;;;;7.95;2.25;;;;;;;;;;4971496;28;20777;-38
2023/10/17 10:13:25;;;;;;;6.53;2.50;;;;;;;;;;4973407;28;20801;-38
2023/10/17 10:16:01;;;;;;;9.55;1.67;;;;;;;;;;4990061;28;20160;-38
2023/10/17 10:18:50;;;;;;;8.75;2.38;;;;;;;;;;5004522;28;20970;-39
2023/10/17 10:21:22;;;;;;;7.93;2.03;;;;;;;;;;4983342;28;20762;-40
2023/10/17 10:23:54;;;;;;;11.05;2.08;;;;;;;;;;4977853;28;20175;-38
2023/10/17 10:26:22;;;;;;;6.40;1.83;;;;;;;;;;4993660;28;20130;-38
2023/10/17 10:28:51;;;;;;;8.75;1.63;;;;;;;;;;4984863;28;20044;-40
2023/10/17 10:31:38;;;;;;;8.07;1.42;;;;;;;;;;4999118;28;20503;-38
2023/10/17 10:34:08;;;;;;;6.32;1.60;;;;;;;;;;4987753;28;20124;-38
2023/10/17 10:36:37;;;;;;;8.30;1.70;;;;;;;;;;4978344;28;20052;-38
2023/10/17 10:39:12;;;;;;;7.17;1.33;;;;;;;;;;4996003;28;20151;-38
2023/10/17 10:41:55;;;;;;;6.88;1.20;;;;;;;;;;4959960;28;20037;-38
2023/10/17 10:44:23;;;;;;;3.55;0.77;;;;;;;;;;4979023;28;20041;-38
2023/10/17 10:46:53;;;;;;;5.82;0.93;;;;;;;;;;4993507;28;20044;-38
2023/10/17 10:49:27;;;;;;;6.53;0.80;;;;;;;;;;4987140;28;20045;-38
2023/10/17 10:52:00;;;;;;;5.80;0.63;;;;;;;;;;4981343;28;20041;-38
2023/10/17 10:54:47;;;;;;;6.07;0.80;;;;;;;;;;4995627;28;20056;-38
2023/10/17 10:57:17;;;;;;;5.53;0.75;;;;;;;;;;4975701;28;20048;-38
2023/10/17 10:59:49;;;;;;;6.65;1.02;;;;;;;;;;4956645;28;20278;-39
2023/10/17 11:02:20;;;;;;;4.38;0.77;;;;;;;;;;4974101;28;20871;-39
2023/10/17 11:04:47;;;;;;;4.77;0.93;;;;;;;;;;4992270;28;20042;-38
2023/10/17 11:07:22;;;;;;;6.47;0.68;;;;;;;;;;4964488;28;20541;-38
2023/10/17 11:10:01;;;;;;;5.60;0.80;;;;;;;;;;4982688;28;20045;-38
2023/10/17 11:12:32;;;;;;;7.15;1.10;;;;;;;;;;4974192;28;20048;-38
2023/10/17 11:15:08;;;;;;;3.47;0.57;;;;;;;;;;4998457;28;20040;-39
2023/10/17 11:17:39;;;;;;;5.70;0.57;;;;;;;;;;4988524;28;20503;-38
2023/10/17 11:20:14;;;;;;;5.50;0.77;;;;;;;;;;4992406;28;20067;-38
2023/10/17 11:22:44;;;;;;;6.25;1.00;;;;;;;;;;4986346;28;20095;-38
2023/10/17 11:25:15;;;;;;;6.20;0.98;;;;;;;;;;4974761;28;20045;-38
2023/10/17 11:27:53;;;;;;;3.67;0.80;;;;;;;;;;4976698;28;20049;-38
2023/10/17 11:30:34;;;;;;;4.27;0.70;;;;;;;;;;4998556;28;20057;-38
2023/10/17 11:33:04;;;;;;;4.82;0.70;;;;;;;;;;4972902;28;20072;-38
2023/10/17 11:35:34;;;;;;;5.45;0.93;;;;;;;;;;4989660;28;20045;-38
2023/10/17 11:38:21;;;;;;;7.55;1.00;;;;;;;;;;4995118;28;20085;-38
2023/10/17 11:40:49;;;;;;;5.93;0.57;;;;;;;;;;4993985;28;20052;-38
2023/10/17 11:43:18;;;;;;;2.93;0.60;;;;;;;;;;4972402;28;20853;-39
2023/10/17 11:45:45;;;;;;;6.38;0.80;;;;;;;;;;5003044;28;20411;-38
2023/10/17 11:48:31;;;;;;;3.72;0.60;;;;;;;;;;4985670;28;20041;-38
2023/10/17 11:51:12;;;;;;;3.08;0.50;;;;;;;;;;4991820;28;20049;-38
2023/10/17 11:54:00;;;;;;;5.03;0.60;;;;;;;;;;4984646;28;20060;-38
2023/10/17 11:56:29;;;;;;;4.50;0.60;;;;;;;;;;4981994;28;20769;-38
2023/10/17 11:58:57;;;;;;;5.10;0.50;;;;;;;;;;4991388;28;20715;-38
2023/10/17 12:01:25;;;;;;;4.95;0.85;;;;;;;;;;5000235;28;21400;-38
2023/10/17 12:03:56;;;;;;;4.88;0.60;;;;;;;;;;4978163;28;20103;-38
2023/10/17 12:06:27;;;;;;;6.03;0.55;;;;;;;;;;4982868;28;20091;-38
2023/10/17 12:08:55;;;;;;;3.47;0.50;;;;;;;;;;5000160;28;20037;-38
2023/10/17 12:11:37;;;;;;;4.40;0.82;;;;;;;;;;4980170;28;20599;-38
2023/10/17 12:14:09;;;;;;;5.22;0.95;;;;;;;;;;4985547;28;20048;-41
2023/10/17 12:16:37;;;;;;;3.88;0.63;;;;;;;;;;4977766;28;21028;-38
2023/10/17 12:19:05;;;;;;;3.08;0.57;;;;;;;;;;4972402;28;20037;-39
2023/10/17 12:21:33;;;;;;;4.37;0.70;;;;;;;;;;4980983;28;20387;-38
2023/10/17 12:24:00;;;;;;;5.55;0.98;;;;;;;;;;4619041;28;10000110;-39
2023/10/17 12:26:28;;;;;;;4.20;0.65;;;;;;;;;;4959479;28;20420;-39
2023/10/17 12:28:57;;;;;;;3.70;0.77;;;;;;;;;;4994721;28;20048;-39
2023/10/17 12:31:25;;;;;;;4.78;0.90;;;;;;;;;;4969232;28;20569;-38
2023/10/17 12:33:53;;;;;;;7.55;1.02;;;;;;;;;;4995516;28;20053;-38
2023/10/17 12:36:22;;;;;;;4.47;0.73;;;;;;;;;;4978571;28;20041;-39
2023/10/17 12:38:51;;;;;;;5.10;0.70;;;;;;;;;;4985854;28;20097;-40
2023/10/17 12:41:19;;;;;;;7.53;0.90;;;;;;;;;;4635195;28;10001390;-38
2023/10/17 12:43:48;;;;;;;7.32;1.05;;;;;;;;;;4982664;28;20042;-39
2023/10/17 12:46:17;;;;;;;5.25;0.75;;;;;;;;;;4978589;28;20284;-38
2023/10/17 12:48:46;;;;;;;6.60;0.90;;;;;;;;;;4998633;28;20044;-38
2023/10/17 12:51:16;;;;;;;5.60;0.88;;;;;;;;;;4972674;28;20064;-38
2023/10/17 12:53:44;;;;;;;4.80;0.53;;;;;;;;;;4985045;28;20072;-38
2023/10/17 12:56:12;;;;;;;7.05;1.08;;;;;;;;;;4983711;28;20675;-39
2023/10/17 12:58:40;;;;;;;5.70;1.13;;;;;;;;;;5000742;28;20041;-38
2023/10/17 13:01:12;;;;;;;6.13;0.57;;;;;;;;;;4991818;28;20140;-39
2023/10/17 13:03:53;;;;;;;4.22;0.50;;;;;;;;;;4984802;28;20049;-40
2023/10/17 13:06:26;;;;;;;3.73;0.80;;;;;;;;;;4985313;28;20135;-38
2023/10/17 13:09:04;;;;;;;4.80;1.23;;;;;;;;;;5003986;28;20056;-39
2023/10/17 13:11:33;;;;;;;4.65;0.95;;;;;;;;;;4991599;28;20049;-38
2023/10/17 13:14:01;;;;;;;4.47;1.00;;;;;;;;;;4969082;28;20132;-39
2023/10/17 13:16:28;;;;;;;7.65;1.63;;;;;;;;;;4981585;28;20503;-38
2023/10/17 13:19:05;;;;;;;4.33;0.83;;;;;;;;;;4981823;28;20082;-38
2023/10/17 13:21:36;;;;;;;4.90;0.93;;;;;;;;;;4984288;28;20631;-38
2023/10/17 13:24:05;;;;;;;5.72;0.70;;;;;;;;;;4976550;28;20124;-40
2023/10/17 13:26:32;;;;;;;6.00;1.00;;;;;;;;;;4976704;28;20037;-38
2023/10/17 13:29:00;;;;;;;6.80;0.90;;;;;;;;;;4979255;28;20756;-38
2023/10/17 13:31:28;;;;;;;5.03;1.13;;;;;;;;;;4988279;28;20048;-39
2023/10/17 13:33:58;;;;;;;5.60;0.70;;;;;;;;;;4985146;28;20139;-39
2023/10/17 13:36:27;;;;;;;6.80;1.08;;;;;;;;;;4990084;28;20037;-40
2023/10/17 13:38:56;;;;;;;4.85;0.73;;;;;;;;;;4986584;28;20033;-40
2023/10/17 13:41:25;;;;;;;5.90;0.80;;;;;;;;;;4996126;28;20090;-39
2023/10/17 13:43:53;;;;;;;4.33;0.70;;;;;;;;;;4973335;28;20148;-39
2023/10/17 13:46:21;;;;;;;5.32;0.80;;;;;;;;;;4995248;28;20551;-39
2023/10/17 13:48:49;;;;;;;5.97;0.70;;;;;;;;;;4996563;28;20053;-39
2023/10/17 13:51:19;;;;;;;4.63;0.85;;;;;;;;;;4984842;28;20072;-39
2023/10/17 13:53:52;;;;;;;4.50;0.77;;;;;;;;;;4980190;28;20048;-38
2023/10/17 13:56:21;;;;;;;8.50;0.80;;;;;;;;;;4981901;28;20205;-39
2023/10/17 13:58:49;;;;;;;6.20;0.90;;;;;;;;;;4987747;28;20507;-39
2023/10/17 14:01:32;;;;;;;4.82;1.20;;;;;;;;;;4944691;28;20048;-41
2023/10/17 14:04:01;;;;;;;4.70;0.80;;;;;;;;;;4970808;28;20057;-39
2023/10/17 14:06:34;;;;;;;8.05;1.75;;;;;;;;;;4979799;28;20044;-40
2023/10/17 14:09:03;;;;;;;6.90;1.33;;;;;;;;;;4962452;28;20049;-38
2023/10/17 14:11:31;;;;;;;6.15;0.90;;;;;;;;;;4976062;28;20054;-39
2023/10/17 14:14:00;;;;;;;11.90;1.58;;;;;;;;;;4968195;28;20037;-39
2023/10/17 14:16:27;;;;;;;7.18;1.40;;;;;;;;;;4977789;28;20048;-38
2023/10/17 14:19:04;;;;;;;5.25;0.90;;;;;;;;;;4980469;28;20531;-38
2023/10/17 14:21:37;;;;;;;5.90;1.00;;;;;;;;;;4979306;28;20052;-40
2023/10/17 14:24:10;;;;;;;4.70;0.90;;;;;;;;;;4972965;28;20345;-40
2023/10/17 14:26:39;;;;;;;6.22;0.68;;;;;;;;;;4977622;28;20037;-40
2023/10/17 14:29:07;;;;;;;6.57;0.73;;;;;;;;;;4980615;28;20156;-38
2023/10/17 14:31:36;;;;;;;10.75;1.13;;;;;;;;;;4975111;28;20649;-38
2023/10/17 14:34:09;;;;;;;6.27;1.00;;;;;;;;;;4975644;28;20866;-40
2023/10/17 14:36:40;;;;;;;4.65;0.60;;;;;;;;;;4956674;28;20590;-38
2023/10/17 14:39:10;;;;;;;8.07;0.80;;;;;;;;;;4979851;28;20325;-39
2023/10/17 14:41:40;;;;;;;5.63;0.80;;;;;;;;;;4291659;28;10000230;-38
2023/10/17 14:44:08;;;;;;;4.68;0.90;;;;;;;;;;4975974;28;20072;-39
2023/10/17 14:46:36;;;;;;;5.03;0.83;;;;;;;;;;4989881;28;20701;-39
2023/10/17 14:49:04;;;;;;;5.03;0.80;;;;;;;;;;4996218;28;20583;-39
2023/10/17 14:51:33;;;;;;;5.43;0.93;;;;;;;;;;4984942;28;20072;-38
2023/10/17 14:54:08;;;;;;;6.60;1.17;;;;;;;;;;4990536;28;20051;-38
2023/10/17 14:56:36;;;;;;;4.90;0.95;;;;;;;;;;4989136;28;20060;-39
2023/10/17 14:59:03;;;;;;;7.23;1.03;;;;;;;;;;4981208;28;21027;-44
2023/10/17 15:01:31;;;;;;;6.85;1.10;;;;;;;;;;4986160;28;20037;-39
2023/10/17 15:03:59;;;;;;;4.97;1.00;;;;;;;;;;4969805;28;20048;-38
2023/10/17 15:06:27;;;;;;;5.50;0.90;;;;;;;;;;4985665;28;20737;-38
2023/10/17 15:08:55;;;;;;;6.47;1.45;;;;;;;;;;4971350;28;20051;-39
2023/10/17 15:11:24;;;;;;;3.87;1.00;;;;;;;;;;4998593;28;20041;-39
2023/10/17 15:13:53;;;;;;;8.90;1.45;;;;;;;;;;4997615;28;20705;-39
2023/10/17 15:16:21;;;;;;;5.60;0.88;;;;;;;;;;4994977;28;20041;-39
2023/10/17 15:18:51;;;;;;;6.45;1.38;;;;;;;;;;4982718;28;20045;-38
2023/10/17 15:21:21;;;;;;;5.00;0.85;;;;;;;;;;4987424;28;20577;-38
2023/10/17 15:23:49;;;;;;;5.77;0.80;;;;;;;;;;4988576;28;20372;-41
2023/10/17 15:26:16;;;;;;;5.55;1.02;;;;;;;;;;4993369;28;20051;-39
2023/10/17 15:28:46;;;;;;;7.10;1.02;;;;;;;;;;5007204;28;20045;-38
2023/10/17 15:31:15;;;;;;;4.65;0.90;;;;;;;;;;4983310;28;21011;-40
2023/10/17 15:33:44;;;;;;;5.75;0.73;;;;;;;;;;4994303;28;20127;-38
2023/10/17 15:36:13;;;;;;;6.33;0.80;;;;;;;;;;4995408;28;20048;-39
2023/10/17 15:38:41;;;;;;;5.95;0.90;;;;;;;;;;4982935;28;20429;-40
2023/10/17 15:41:13;;;;;;;6.00;1.15;;;;;;;;;;4990444;28;20606;-38
2023/10/17 15:43:41;;;;;;;6.20;0.80;;;;;;;;;;4992828;28;20143;-39
2023/10/17 15:46:13;;;;;;;5.22;1.27;;;;;;;;;;4975346;28;20037;-39
2023/10/17 15:48:42;;;;;;;8.13;1.20;;;;;;;;;;4995951;28;20045;-39
2023/10/17 15:51:10;;;;;;;4.65;1.23;;;;;;;;;;5000142;28;20400;-39
2023/10/17 15:53:38;;;;;;;12.30;0.90;;;;;;;;;;4987543;28;20045;-39
2023/10/17 15:56:07;;;;;;;7.65;0.95;;;;;;;;;;4983201;28;20046;-39
2023/10/17 15:58:36;;;;;;;7.85;0.90;;;;;;;;;;4997723;28;20045;-38
2023/10/17 16:01:04;;;;;;;7.73;1.20;;;;;;;;;;4989786;28;20041;-38
2023/10/17 16:03:40;;;;;;;7.53;1.52;;;;;;;;;;4989139;28;20487;-38
2023/10/17 16:06:08;;;;;;;6.82;1.25;;;;;;;;;;4988952;28;20033;-38
2023/10/17 16:08:36;;;;;;;5.65;1.25;;;;;;;;;;4999283;28;20120;-38
2023/10/17 16:11:05;;;;;;;8.15;1.50;;;;;;;;;;4985622;28;21101;-39
2023/10/17 16:13:33;;;;;;;9.60;1.60;;;;;;;;;;4992659;28;20045;-38
2023/10/17 16:16:01;;;;;;;9.02;1.33;;;;;;;;;;4997274;28;20049;-39
2023/10/17 16:18:29;;;;;;;5.72;2.00;;;;;;;;;;4997117;28;20126;-39
2023/10/17 16:20:59;;;;;;;10.95;2.40;;;;;;;;;;4996388;28;20041;-38
2023/10/17 16:23:28;;;;;;;13.00;3.22;;;;;;;;;;4986791;28;20048;-38
2023/10/17 16:25:58;;;;;;;8.07;1.63;;;;;;;;;;5002222;28;20060;-38
2023/10/17 16:28:30;;;;;;;6.63;1.30;;;;;;;;;;4995912;28;20538;-38
2023/10/17 16:30:59;;;;;;;5.22;1.67;;;;;;;;;;4985989;28;20422;-39